Time;durP1;ratioP1;P1;durP2;ratioP2;P2;SDS_P1;SDS_P2;PMS_P1;PMS_P2;Temp;Humidity;BMP_temperature;BMP_pressure;BME280_temperature;BME280_humidity;BME280_pressure;Samples;Min_cycle;Max_cycle;Signal;HPM_P1;HPM_P2
2022/01/16 00:04:08;;;;;;;84.28;27.95;;;1.90;99.90;;;;;;5087057;28;20443;-61
2022/01/16 00:06:38;;;;;;;93.03;28.25;;;1.90;99.90;;;;;;5087113;28;20562;-58
2022/01/16 00:09:05;;;;;;;90.22;28.65;;;2.50;99.90;;;;;;5087281;28;20394;-61
2022/01/16 00:11:31;;;;;;;107.22;31.50;;;3.50;99.90;;;;;;5091156;28;20370;-61
2022/01/16 00:13:56;;;;;;;107.80;29.02;;;2.80;99.90;;;;;;5090540;28;20384;-61
2022/01/16 00:16:23;;;;;;;77.60;28.90;;;1.80;99.90;;;;;;5090757;28;20407;-61
2022/01/16 00:18:49;;;;;;;92.63;31.10;;;1.90;99.90;;;;;;5087665;28;20425;-61
2022/01/16 00:21:17;;;;;;;86.45;30.15;;;1.80;99.90;;;;;;5089888;28;20378;-61
2022/01/16 00:23:43;;;;;;;93.20;32.40;;;1.80;99.90;;;;;;5089009;28;20377;-61
2022/01/16 00:26:08;;;;;;;77.70;29.63;;;1.70;99.90;;;;;;5091561;28;20382;-61
2022/01/16 00:28:35;;;;;;;78.70;28.77;;;1.70;99.90;;;;;;5090436;28;20486;-58
2022/01/16 00:31:00;;;;;;;110.25;32.25;;;1.70;99.90;;;;;;5089377;28;20421;-61
2022/01/16 00:33:26;;;;;;;99.63;33.08;;;3.40;99.90;;;;;;5090562;28;20413;-61
2022/01/16 00:35:52;;;;;;;115.15;31.20;;;1.60;99.90;;;;;;5089852;28;21026;-59
2022/01/16 00:38:18;;;;;;;78.97;30.45;;;2.50;99.90;;;;;;5091160;28;20413;-59
2022/01/16 00:40:44;;;;;;;101.17;33.40;;;3.50;99.90;;;;;;5090584;28;20409;-60
2022/01/16 00:43:09;;;;;;;99.70;31.87;;;1.70;99.90;;;;;;5091087;28;20386;-61
2022/01/16 00:45:35;;;;;;;103.38;34.33;;;1.70;99.90;;;;;;5090613;28;20410;-58
2022/01/16 00:48:03;;;;;;;91.53;31.55;;;2.70;99.90;;;;;;5090739;28;20864;-60
2022/01/16 00:50:30;;;;;;;94.63;32.28;;;1.60;99.90;;;;;;5090920;28;20797;-61
2022/01/16 00:52:57;;;;;;;116.35;34.67;;;1.70;99.90;;;;;;5085901;28;20569;-61
2022/01/16 00:55:23;;;;;;;92.65;31.30;;;1.90;99.90;;;;;;5090299;28;20450;-61
2022/01/16 00:57:48;;;;;;;102.53;31.92;;;1.60;99.90;;;;;;5089931;28;20786;-59
2022/01/16 01:00:14;;;;;;;103.38;33.38;;;1.80;99.90;;;;;;5090436;28;20408;-59
2022/01/16 01:02:40;;;;;;;109.40;35.63;;;1.50;99.90;;;;;;5090282;28;20382;-59
2022/01/16 01:05:08;;;;;;;89.28;32.42;;;1.40;99.90;;;;;;5090891;28;20893;-60
2022/01/16 01:07:34;;;;;;;106.00;33.30;;;1.40;99.90;;;;;;5090034;28;20934;-56
2022/01/16 01:10:00;;;;;;;80.65;31.77;;;1.80;99.90;;;;;;5090510;28;20378;-59
2022/01/16 01:12:30;;;;;;;78.35;31.67;;;1.60;99.90;;;;;;5090764;28;20697;-60
2022/01/16 01:15:40;;;;;;;82.28;30.20;;;1.70;99.90;;;;;;5086958;28;20389;-61
2022/01/16 01:17:49;;;;;;;102.93;33.25;;;1.70;99.90;;;;;;5085328;28;20895;-62
2022/01/16 01:20:17;;;;;;;120.53;33.17;;;2.00;99.90;;;;;;5090446;28;20434;-61
2022/01/16 01:22:45;;;;;;;101.28;33.60;;;1.70;99.90;;;;;;5089621;28;20467;-61
2022/01/16 01:25:12;;;;;;;79.95;30.20;;;1.70;99.90;;;;;;5090049;28;20470;-61
2022/01/16 01:27:41;;;;;;;85.32;31.77;;;1.60;99.90;;;;;;5089137;28;20382;-58
2022/01/16 01:30:11;;;;;;;82.93;30.17;;;1.60;99.90;;;;;;5089939;28;20847;-59
2022/01/16 01:32:39;;;;;;;107.73;34.90;;;1.40;99.90;;;;;;5083594;28;20553;-56
2022/01/16 01:35:10;;;;;;;97.95;32.22;;;1.20;99.90;;;;;;5088569;28;20370;-59
2022/01/16 01:37:37;;;;;;;89.65;32.28;;;1.10;99.90;;;;;;5083289;28;20396;-56
2022/01/16 01:40:09;;;;;;;145.27;36.08;;;2.70;99.90;;;;;;5088457;28;20463;-60
2022/01/16 01:42:43;;;;;;;88.70;31.03;;;1.30;99.90;;;;;;5089609;28;20501;-56
2022/01/16 01:53:23;;;;;;;71.07;28.97;;;1.40;99.90;;;;;;5088277;28;20373;-60
2022/01/16 01:55:49;;;;;;;66.23;29.40;;;1.20;99.90;;;;;;5089293;28;20386;-59
2022/01/16 01:58:14;;;;;;;81.22;29.70;;;1.00;99.90;;;;;;5089544;28;20473;-59
2022/01/16 02:00:42;;;;;;;87.25;30.85;;;0.90;99.90;;;;;;5089179;28;20743;-59
2022/01/16 02:03:22;;;;;;;101.28;33.88;;;1.10;99.90;;;;;;5089431;28;20420;-59
2022/01/16 02:05:47;;;;;;;89.18;32.75;;;2.80;99.90;;;;;;5088159;28;20453;-59
2022/01/16 02:08:13;;;;;;;142.20;34.67;;;0.90;99.90;;;;;;5089418;28;20448;-59
2022/01/16 02:10:41;;;;;;;76.45;29.88;;;1.60;99.90;;;;;;5088572;28;20385;-57
2022/01/16 02:13:10;;;;;;;95.03;32.13;;;1.20;99.90;;;;;;5089583;28;20842;-59
2022/01/16 02:27:58;;;;;;;84.85;29.90;;;1.10;99.90;;;;;;5089074;28;20421;-56
2022/01/16 02:34:44;;;;;;;101.10;32.70;;;1.10;99.90;;;;;;5084997;28;20378;-56
2022/01/16 02:37:15;;;;;;;100.90;32.30;;;1.10;99.90;;;;;;5088545;28;20411;-59
2022/01/16 02:39:47;;;;;;;111.55;33.50;;;1.10;99.90;;;;;;5085147;28;20470;-59
2022/01/16 02:42:13;;;;;;;91.28;32.10;;;1.00;99.90;;;;;;5088812;28;20473;-59
2022/01/16 02:44:47;;;;;;;99.57;33.20;;;2.60;99.90;;;;;;5088257;28;20960;-57
2022/01/16 02:47:17;;;;;;;88.70;31.60;;;1.00;99.90;;;;;;5089061;28;20397;-59
2022/01/16 02:49:47;;;;;;;99.72;30.20;;;1.10;99.90;;;;;;5084787;28;20409;-59
2022/01/16 02:52:14;;;;;;;106.45;34.33;;;1.30;99.90;;;;;;5086871;28;20397;-59
2022/01/16 02:54:42;;;;;;;92.05;30.88;;;1.10;99.90;;;;;;5088015;28;20461;-59
2022/01/16 02:57:11;;;;;;;88.10;31.57;;;1.10;99.90;;;;;;5088519;28;20439;-59
2022/01/16 02:59:38;;;;;;;74.07;31.35;;;1.50;99.90;;;;;;5088587;28;20496;-57
2022/01/16 03:02:08;;;;;;;91.55;31.13;;;1.10;99.90;;;;;;5088471;28;20389;-59
2022/01/16 03:04:33;;;;;;;79.03;29.55;;;1.60;99.90;;;;;;5088459;28;20397;-58
2022/01/16 03:07:00;;;;;;;102.90;31.52;;;1.50;99.90;;;;;;5087987;28;20471;-60
2022/01/16 03:09:33;;;;;;;96.00;30.70;;;1.20;99.90;;;;;;5088753;28;20381;-60
2022/01/16 03:11:59;;;;;;;76.25;30.80;;;1.70;99.90;;;;;;5084255;28;20389;-59
2022/01/16 03:14:24;;;;;;;126.88;33.53;;;1.20;99.90;;;;;;5088821;28;20374;-59
2022/01/16 03:16:50;;;;;;;139.97;34.03;;;1.70;99.90;;;;;;5087715;28;20724;-59
2022/01/16 03:22:04;;;;;;;80.97;30.08;;;1.20;99.90;;;;;;5086593;28;20482;-60
2022/01/16 03:24:42;;;;;;;84.78;29.92;;;1.10;99.90;;;;;;5091343;28;20381;-60
2022/01/16 03:27:14;;;;;;;117.65;31.35;;;1.10;99.90;;;;;;5091511;28;20382;-60
2022/01/16 03:29:43;;;;;;;107.70;31.80;;;1.20;99.90;;;;;;5089530;28;20392;-56
2022/01/16 03:32:12;;;;;;;102.60;30.20;;;1.90;99.90;;;;;;5092284;28;20461;-60
2022/01/16 03:34:38;;;;;;;92.00;30.50;;;2.80;99.90;;;;;;5089618;28;20527;-56
2022/01/16 03:37:04;;;;;;;117.68;31.50;;;1.20;99.90;;;;;;5092120;28;20834;-59
2022/01/16 03:39:30;;;;;;;94.18;30.45;;;1.20;99.90;;;;;;5092485;28;20582;-60
2022/01/16 03:41:58;;;;;;;93.07;29.03;;;2.10;99.90;;;;;;5091714;28;20382;-59
2022/01/16 03:44:24;;;;;;;77.85;27.13;;;1.40;99.90;;;;;;5091940;28;20370;-59
2022/01/16 03:46:50;;;;;;;96.70;29.42;;;2.10;99.90;;;;;;5091269;28;21260;-59
2022/01/16 03:49:18;;;;;;;92.00;27.92;;;1.20;99.90;;;;;;5092052;28;20463;-59
2022/01/16 03:51:46;;;;;;;93.17;30.17;;;1.10;99.90;;;;;;5091149;28;20504;-59
2022/01/16 03:54:15;;;;;;;106.60;32.17;;;1.10;99.90;;;;;;5091835;28;20386;-59
2022/01/16 03:56:42;;;;;;;84.55;29.70;;;1.20;99.90;;;;;;5089280;28;20397;-56
2022/01/16 03:59:07;;;;;;;98.40;31.48;;;0.90;99.90;;;;;;5092197;28;20485;-59
2022/01/16 04:01:33;;;;;;;79.63;28.65;;;0.90;99.90;;;;;;5090357;28;20567;-58
2022/01/16 04:03:59;;;;;;;71.13;27.60;;;0.90;99.90;;;;;;5091433;28;20385;-58
2022/01/16 04:06:25;;;;;;;71.90;29.30;;;1.30;99.90;;;;;;5091313;28;20378;-58
2022/01/16 04:08:55;;;;;;;86.90;30.85;;;0.80;99.90;;;;;;5087251;28;20403;-59
2022/01/16 04:11:25;;;;;;;76.43;28.88;;;0.80;99.90;;;;;;5087196;28;20481;-59
2022/01/16 04:13:53;;;;;;;73.57;28.85;;;0.80;99.90;;;;;;5090959;28;20419;-59
2022/01/16 04:16:23;;;;;;;76.60;28.48;;;1.50;99.90;;;;;;5087390;28;20410;-59
2022/01/16 04:18:51;;;;;;;97.97;31.37;;;0.80;99.90;;;;;;5089281;28;20479;-59
2022/01/16 04:21:22;;;;;;;81.05;29.20;;;0.80;99.90;;;;;;5091754;28;20417;-59
2022/01/16 04:23:49;;;;;;;100.35;30.83;;;0.90;99.90;;;;;;5089640;28;20549;-59
2022/01/16 04:26:16;;;;;;;83.53;29.87;;;1.00;99.90;;;;;;5091238;28;20583;-59
2022/01/16 04:28:42;;;;;;;102.80;29.50;;;1.00;99.90;;;;;;5089929;28;20382;-59
2022/01/16 04:31:09;;;;;;;94.77;29.23;;;1.00;99.90;;;;;;5088040;28;21126;-59
2022/01/16 04:33:35;;;;;;;97.20;29.47;;;1.00;99.90;;;;;;5090162;28;20454;-58
2022/01/16 04:36:01;;;;;;;78.85;28.48;;;1.10;99.90;;;;;;5089556;28;21142;-60
2022/01/16 04:38:27;;;;;;;125.55;32.22;;;1.10;99.90;;;;;;5091182;28;20510;-61
2022/01/16 04:43:51;;;;;;;82.90;27.25;;;1.10;99.90;;;;;;5091199;28;20397;-57
2022/01/16 04:46:19;;;;;;;88.95;27.55;;;1.10;99.90;;;;;;5089429;28;20394;-58
2022/01/16 04:48:46;;;;;;;92.43;28.60;;;2.90;99.90;;;;;;5090342;28;20410;-58
2022/01/16 04:51:11;;;;;;;82.95;28.05;;;1.40;99.90;;;;;;5090710;28;20855;-58
2022/01/16 04:53:38;;;;;;;72.13;25.90;;;1.10;99.90;;;;;;5090825;28;20396;-57
2022/01/16 04:56:05;;;;;;;68.72;27.45;;;1.10;99.90;;;;;;5090994;28;20389;-59
2022/01/16 04:58:32;;;;;;;63.53;26.50;;;2.30;99.90;;;;;;5091288;28;20374;-59
2022/01/16 05:00:57;;;;;;;76.80;28.23;;;0.90;99.90;;;;;;5090193;28;20587;-59
2022/01/16 05:03:25;;;;;;;106.45;29.55;;;0.90;99.90;;;;;;5090860;28;20863;-59
2022/01/16 05:05:51;;;;;;;80.28;28.77;;;0.90;99.90;;;;;;5090126;28;20433;-59
2022/01/16 05:08:16;;;;;;;66.90;27.43;;;1.00;99.90;;;;;;5090108;28;20456;-59
2022/01/16 05:10:42;;;;;;;69.95;25.88;;;1.40;99.90;;;;;;5085059;28;20431;-56
2022/01/16 05:18:34;;;;;;;72.90;28.10;;;0.90;99.90;;;;;;5087766;28;20379;-60
2022/01/16 05:21:00;;;;;;;68.80;27.20;;;0.80;99.90;;;;;;5089773;28;20374;-59
2022/01/16 05:23:26;;;;;;;66.60;27.60;;;2.00;99.90;;;;;;5090281;28;20427;-59
2022/01/16 05:25:52;;;;;;;67.88;26.92;;;0.90;99.90;;;;;;5089483;28;20386;-59
2022/01/16 05:28:18;;;;;;;70.72;27.05;;;1.30;99.90;;;;;;5090239;28;20906;-59
2022/01/16 05:30:43;;;;;;;66.30;24.97;;;2.00;99.90;;;;;;5088386;28;20386;-58
2022/01/16 05:33:09;;;;;;;75.30;25.93;;;0.70;99.90;;;;;;5088139;28;20894;-59
2022/01/16 05:35:35;;;;;;;61.22;25.75;;;0.80;99.90;;;;;;5085068;28;20390;-59
2022/01/16 05:38:01;;;;;;;74.35;26.80;;;0.80;99.90;;;;;;5089420;28;20390;-59
2022/01/16 05:40:26;;;;;;;66.97;26.40;;;0.80;99.90;;;;;;5090106;28;20410;-59
2022/01/16 05:42:52;;;;;;;63.60;24.00;;;0.90;99.90;;;;;;5088739;28;20788;-59
2022/01/16 05:45:18;;;;;;;64.73;26.60;;;0.90;99.90;;;;;;5090114;28;20382;-58
2022/01/16 05:47:43;;;;;;;64.18;25.40;;;0.90;99.90;;;;;;5089291;28;20375;-57
2022/01/16 05:50:09;;;;;;;59.83;24.17;;;1.90;99.90;;;;;;5090141;28;20397;-59
2022/01/16 05:52:35;;;;;;;65.45;25.65;;;0.60;99.90;;;;;;5089690;28;20386;-58
2022/01/16 05:55:04;;;;;;;61.70;25.10;;;0.70;99.90;;;;;;5089220;28;21056;-59
2022/01/16 05:57:29;;;;;;;62.55;24.38;;;0.70;99.90;;;;;;5089876;28;20390;-59
2022/01/16 05:59:55;;;;;;;55.60;22.83;;;0.60;99.90;;;;;;5088787;28;20455;-58
2022/01/16 06:02:21;;;;;;;67.47;24.40;;;0.50;99.90;;;;;;5088429;28;20481;-59
2022/01/16 06:04:46;;;;;;;67.00;24.43;;;0.40;99.90;;;;;;5084520;28;20487;-59
2022/01/16 06:07:12;;;;;;;60.90;24.88;;;0.40;99.90;;;;;;5087923;28;20397;-59
2022/01/16 06:09:38;;;;;;;59.42;23.52;;;0.20;99.90;;;;;;5089281;28;20465;-59
2022/01/16 06:12:04;;;;;;;65.87;23.63;;;1.30;99.90;;;;;;5086183;28;20382;-59
2022/01/16 06:14:30;;;;;;;65.53;24.85;;;0.10;99.90;;;;;;5089594;28;20393;-58
2022/01/16 06:16:56;;;;;;;62.05;24.80;;;0.20;99.90;;;;;;5088593;28;20406;-59
2022/01/16 06:19:22;;;;;;;71.80;25.80;;;0.20;99.90;;;;;;5089323;28;20402;-59
2022/01/16 06:21:49;;;;;;;66.78;25.15;;;0.30;99.90;;;;;;5085090;28;20430;-59
2022/01/16 06:24:15;;;;;;;70.97;25.63;;;0.30;99.90;;;;;;5087874;28;20474;-59
2022/01/16 06:26:41;;;;;;;71.38;24.30;;;0.20;99.90;;;;;;5088673;28;20374;-56
2022/01/16 06:29:07;;;;;;;94.85;28.95;;;0.20;99.90;;;;;;5085546;28;20609;-59
2022/01/16 06:31:32;;;;;;;89.88;28.73;;;0.20;99.90;;;;;;5088065;28;20747;-58
2022/01/16 06:34:03;;;;;;;78.90;25.43;;;0.20;99.90;;;;;;5087604;28;20822;-58
2022/01/16 06:36:29;;;;;;;73.50;25.88;;;0.20;99.90;;;;;;5088534;28;20427;-58
2022/01/16 06:38:56;;;;;;;101.28;27.83;;;0.20;99.90;;;;;;5088161;28;20402;-58
2022/01/16 06:41:21;;;;;;;89.00;29.33;;;0.30;99.90;;;;;;5086324;28;20394;-58
2022/01/16 06:43:47;;;;;;;100.10;29.83;;;0.10;99.90;;;;;;5088562;28;20496;-59
2022/01/16 06:46:13;;;;;;;87.13;26.43;;;0.50;99.90;;;;;;5088777;28;20916;-62
2022/01/16 06:48:40;;;;;;;105.05;30.30;;;0.10;99.90;;;;;;5089547;28;20382;-59
2022/01/16 06:51:07;;;;;;;81.22;28.73;;;0.20;99.90;;;;;;5089075;28;20464;-58
2022/01/16 06:53:33;;;;;;;94.60;29.17;;;0.10;99.90;;;;;;5088912;28;20911;-58
2022/01/16 06:55:59;;;;;;;102.22;29.42;;;0.10;99.90;;;;;;5088541;28;20390;-58
2022/01/16 06:58:25;;;;;;;77.50;29.15;;;0.20;99.90;;;;;;5089093;28;20388;-58
2022/01/16 07:00:51;;;;;;;88.40;27.67;;;0.30;99.90;;;;;;5082057;28;20911;-58
2022/01/16 07:03:17;;;;;;;95.70;29.20;;;0.20;99.90;;;;;;5085818;28;20367;-55
2022/01/16 07:05:43;;;;;;;71.53;26.90;;;0.10;99.90;;;;;;5081309;28;20455;-56
2022/01/16 07:08:09;;;;;;;84.18;28.65;;;0.20;99.90;;;;;;5089475;28;20409;-58
2022/01/16 07:10:35;;;;;;;79.20;27.17;;;0.20;99.90;;;;;;5088738;28;20389;-59
2022/01/16 07:13:01;;;;;;;78.93;29.00;;;0.70;99.90;;;;;;5088298;28;20411;-59
2022/01/16 07:15:27;;;;;;;94.25;29.20;;;0.30;99.90;;;;;;5088600;28;20413;-59
2022/01/16 07:17:53;;;;;;;117.57;33.75;;;0.20;99.90;;;;;;5088358;28;20382;-59
2022/01/16 07:20:19;;;;;;;92.57;25.77;;;0.10;99.90;;;;;;5088750;28;20467;-59
2022/01/16 07:22:45;;;;;;;113.05;30.48;;;0.20;99.90;;;;;;5088193;28;20436;-56
2022/01/16 07:25:13;;;;;;;122.53;33.55;;;1.20;99.90;;;;;;5087661;28;20468;-59
2022/01/16 07:27:39;;;;;;;93.72;29.67;;;1.10;99.90;;;;;;5081227;28;20842;-59
2022/01/16 07:30:07;;;;;;;85.35;29.25;;;0.10;99.90;;;;;;5076279;28;20415;-59
2022/01/16 07:32:33;;;;;;;131.23;36.70;;;0.10;99.90;;;;;;5088747;28;20396;-57
2022/01/16 07:34:59;;;;;;;145.80;35.72;;;-0.10;99.90;;;;;;5088017;28;20394;-58
2022/01/16 07:37:25;;;;;;;91.10;29.70;;;0.00;99.90;;;;;;5088257;28;20419;-58
2022/01/16 07:39:51;;;;;;;131.35;30.00;;;0.10;99.90;;;;;;5089799;28;20396;-58
2022/01/16 07:42:16;;;;;;;107.20;31.43;;;0.60;99.90;;;;;;5106190;28;20403;-58
2022/01/16 07:44:42;;;;;;;75.50;28.60;;;0.30;99.90;;;;;;5104596;28;20398;-56
2022/01/16 07:47:08;;;;;;;77.28;27.77;;;0.50;99.90;;;;;;5084525;28;20892;-58
2022/01/16 07:49:34;;;;;;;112.68;32.13;;;0.30;99.90;;;;;;5085013;28;20430;-58
2022/01/16 07:51:59;;;;;;;72.90;28.30;;;0.90;99.90;;;;;;5086450;28;20398;-58
2022/01/16 07:54:25;;;;;;;66.50;28.48;;;0.30;99.90;;;;;;5079677;28;20403;-57
2022/01/16 07:56:50;;;;;;;62.03;26.80;;;0.20;99.90;;;;;;5081031;28;20401;-58
2022/01/16 07:59:16;;;;;;;59.47;25.77;;;0.20;99.90;;;;;;5084474;28;20747;-58
2022/01/16 08:01:43;;;;;;;64.33;29.23;;;0.90;99.90;;;;;;5084494;28;20435;-56
2022/01/16 08:04:08;;;;;;;101.03;32.63;;;1.70;99.90;;;;;;5076746;28;20405;-58
2022/01/16 08:06:34;;;;;;;72.27;27.97;;;0.10;99.90;;;;;;5093815;28;20378;-58
2022/01/16 08:09:00;;;;;;;74.57;26.00;;;0.10;99.90;;;;;;5087884;28;20404;-59
2022/01/16 08:11:25;;;;;;;64.20;26.73;;;0.20;99.90;;;;;;5085523;28;20388;-58
2022/01/16 08:13:51;;;;;;;69.40;27.80;;;0.60;99.90;;;;;;5088995;28;20378;-58
2022/01/16 08:16:17;;;;;;;62.27;25.20;;;2.00;99.90;;;;;;5092154;28;20400;-58
2022/01/16 08:18:42;;;;;;;52.10;24.35;;;0.60;99.90;;;;;;5096268;28;20572;-56
2022/01/16 08:21:08;;;;;;;46.03;24.48;;;0.20;99.90;;;;;;5088838;28;20398;-58
2022/01/16 08:23:34;;;;;;;54.00;25.10;;;0.10;99.90;;;;;;5080309;28;20726;-58
2022/01/16 08:26:01;;;;;;;55.37;26.07;;;0.30;99.90;;;;;;5091267;28;20387;-58
2022/01/16 08:28:28;;;;;;;52.07;25.90;;;0.00;99.90;;;;;;5085154;28;20386;-58
2022/01/16 08:30:53;;;;;;;49.38;25.75;;;0.00;99.90;;;;;;5085764;28;20489;-59
2022/01/16 08:33:19;;;;;;;49.95;25.60;;;0.00;99.90;;;;;;5075574;28;20518;-58
2022/01/16 08:35:45;;;;;;;54.15;26.95;;;0.10;99.90;;;;;;5087793;28;20851;-57
2022/01/16 08:38:11;;;;;;;55.30;26.60;;;0.30;99.90;;;;;;5082202;28;20391;-58
2022/01/16 08:40:37;;;;;;;48.77;25.17;;;0.40;99.90;;;;;;5073937;28;20423;-57
2022/01/16 08:43:08;;;;;;;57.47;26.55;;;0.40;99.90;;;;;;5079771;28;20390;-57
2022/01/16 08:45:36;;;;;;;48.78;25.85;;;0.50;99.90;;;;;;5071541;28;20395;-58
2022/01/16 08:48:01;;;;;;;46.92;23.70;;;0.50;99.90;;;;;;5075324;28;21191;-58
2022/01/16 08:50:27;;;;;;;53.00;26.52;;;0.50;99.90;;;;;;5079526;28;20449;-58
2022/01/16 08:52:53;;;;;;;51.55;25.77;;;0.40;99.90;;;;;;5077924;28;20552;-58
2022/01/16 08:55:19;;;;;;;49.95;25.00;;;0.50;99.90;;;;;;5087634;28;20382;-58
2022/01/16 08:57:45;;;;;;;48.60;24.90;;;1.80;99.90;;;;;;5084758;28;20389;-56
2022/01/16 09:00:11;;;;;;;52.53;25.30;;;0.60;99.90;;;;;;5083625;28;20407;-58
2022/01/16 09:02:37;;;;;;;49.60;25.58;;;0.70;99.90;;;;;;5085384;28;20735;-58
2022/01/16 09:05:03;;;;;;;52.70;25.90;;;0.60;99.90;;;;;;5074427;28;20407;-58
2022/01/16 09:07:29;;;;;;;57.53;27.08;;;0.70;99.90;;;;;;5076889;28;20425;-57
2022/01/16 09:09:57;;;;;;;51.63;26.33;;;0.70;99.90;;;;;;5075753;28;20957;-57
2022/01/16 09:12:23;;;;;;;55.03;26.00;;;0.60;99.90;;;;;;5077196;28;20396;-58
2022/01/16 09:14:49;;;;;;;50.25;25.73;;;0.80;99.90;;;;;;5072231;28;20876;-57
2022/01/16 09:17:14;;;;;;;51.05;25.98;;;0.90;99.90;;;;;;5073833;28;20426;-58
2022/01/16 09:19:42;;;;;;;55.17;26.50;;;0.80;99.90;;;;;;5072934;28;20955;-58
2022/01/16 09:22:08;;;;;;;49.88;25.17;;;0.80;99.90;;;;;;5079049;28;20580;-56
2022/01/16 09:24:34;;;;;;;56.08;25.33;;;0.70;99.90;;;;;;5075737;28;20797;-59
2022/01/16 09:27:00;;;;;;;49.78;25.83;;;0.80;99.90;;;;;;5079444;28;20863;-58
2022/01/16 09:29:26;;;;;;;49.85;24.42;;;0.90;99.90;;;;;;5077269;28;20399;-57
2022/01/16 09:31:51;;;;;;;53.20;26.70;;;0.80;99.90;;;;;;5074334;28;20855;-58
2022/01/16 09:34:17;;;;;;;50.90;25.70;;;0.80;99.90;;;;;;5072780;28;20392;-57
2022/01/16 09:36:43;;;;;;;51.33;26.73;;;0.70;99.90;;;;;;5072761;28;20882;-56
2022/01/16 09:39:10;;;;;;;54.43;27.53;;;0.90;99.90;;;;;;5075217;28;20403;-57
2022/01/16 09:41:35;;;;;;;57.25;27.90;;;1.20;99.90;;;;;;5074154;28;20420;-57
2022/01/16 09:44:01;;;;;;;61.55;27.95;;;1.70;99.90;;;;;;5078234;28;20764;-57
2022/01/16 09:46:27;;;;;;;60.63;29.15;;;1.40;99.90;;;;;;5091756;28;20401;-57
2022/01/16 09:48:53;;;;;;;59.93;28.80;;;1.50;99.90;;;;;;5088818;28;20451;-57
2022/01/16 09:51:18;;;;;;;55.08;25.08;;;1.60;99.90;;;;;;5089821;28;20782;-57
2022/01/16 09:53:44;;;;;;;61.63;29.90;;;1.70;99.90;;;;;;5088304;28;20404;-57
2022/01/16 09:56:10;;;;;;;58.20;29.30;;;3.20;99.90;;;;;;5068808;28;20403;-58
2022/01/16 09:58:37;;;;;;;58.05;27.25;;;1.80;99.90;;;;;;5084282;28;20378;-57
2022/01/16 10:01:03;;;;;;;55.25;27.60;;;2.10;99.90;;;;;;5081309;28;20479;-57
2022/01/16 10:03:43;;;;;;;56.70;27.65;;;1.80;99.90;;;;;;5075632;28;20455;-57
2022/01/16 10:06:16;;;;;;;61.38;28.60;;;2.20;99.90;;;;;;5072844;28;20871;-57
2022/01/16 10:08:43;;;;;;;64.63;28.95;;;1.60;99.90;;;;;;5088307;28;20390;-59
2022/01/16 10:11:29;;;;;;;62.13;28.52;;;2.90;99.90;;;;;;5093295;28;20392;-59
2022/01/16 10:14:46;;;;;;;55.07;25.40;;;1.40;99.90;;;;;;5071241;28;20388;-58
2022/01/16 10:16:49;;;;;;;65.85;29.00;;;1.50;99.90;;;;;;5066734;28;20815;-56
2022/01/16 10:19:23;;;;;;;57.20;27.10;;;2.20;99.90;;;;;;5087514;28;20426;-58
2022/01/16 10:21:50;;;;;;;59.22;26.65;;;1.70;99.90;;;;;;5078971;28;20403;-57
2022/01/16 10:24:15;;;;;;;51.40;23.33;;;2.50;99.90;;;;;;5075796;28;20877;-57
2022/01/16 10:26:42;;;;;;;59.13;26.50;;;1.70;99.90;;;;;;5077537;28;20390;-58
2022/01/16 10:29:08;;;;;;;51.10;23.48;;;1.80;99.90;;;;;;5075737;28;20408;-57
2022/01/16 10:31:34;;;;;;;50.67;24.70;;;1.80;99.90;;;;;;5074077;28;20866;-56
2022/01/16 10:33:59;;;;;;;51.00;23.02;;;1.90;99.90;;;;;;5067143;28;20403;-57
2022/01/16 10:36:36;;;;;;;49.63;23.43;;;2.60;99.90;;;;;;5079424;28;20613;-57
2022/01/16 10:39:12;;;;;;;45.45;22.80;;;1.90;99.90;;;;;;5082309;28;20416;-56
2022/01/16 10:41:38;;;;;;;52.50;23.65;;;3.80;99.90;;;;;;5071144;28;20392;-58
2022/01/16 10:44:23;;;;;;;39.83;18.55;;;2.80;99.90;;;;;;5069496;28;20413;-57
2022/01/16 10:46:49;;;;;;;41.78;20.45;;;1.80;99.90;;;;;;5069119;28;20757;-56
2022/01/16 10:49:19;;;;;;;39.37;19.53;;;3.00;99.90;;;;;;5073342;28;20392;-58
2022/01/16 10:52:06;;;;;;;47.20;20.90;;;2.50;99.90;;;;;;5073426;28;20402;-55
2022/01/16 10:54:34;;;;;;;47.17;21.83;;;1.90;99.90;;;;;;5082637;28;20411;-57
2022/01/16 10:57:24;;;;;;;46.33;21.63;;;2.00;99.90;;;;;;5081037;28;20386;-57
2022/01/16 11:00:03;;;;;;;41.40;21.60;;;2.00;99.90;;;;;;5069812;28;20472;-56
2022/01/16 11:02:30;;;;;;;44.45;21.20;;;1.80;99.90;;;;;;5077701;28;20450;-57
2022/01/16 11:05:13;;;;;;;43.97;19.75;;;2.80;99.90;;;;;;5069271;28;20402;-57
2022/01/16 11:07:40;;;;;;;49.22;21.80;;;1.90;99.90;;;;;;5072200;28;20881;-58
2022/01/16 11:10:28;;;;;;;38.05;20.15;;;1.90;99.90;;;;;;5073235;28;20395;-57
2022/01/16 11:13:05;;;;;;;42.73;19.70;;;3.70;99.90;;;;;;5070793;28;20426;-57
2022/01/16 11:15:32;;;;;;;37.38;19.75;;;1.70;99.90;;;;;;5071120;28;20415;-58
2022/01/16 11:17:58;;;;;;;52.17;23.58;;;2.90;99.90;;;;;;5075210;28;20382;-58
2022/01/16 11:20:34;;;;;;;46.13;21.25;;;1.60;99.90;;;;;;5074117;28;20422;-57
2022/01/16 11:25:58;;;;;;;44.35;19.75;;;1.70;99.90;;;;;;5043268;28;20378;-57
2022/01/16 11:28:24;;;;;;;44.75;20.52;;;1.70;99.90;;;;;;5081069;28;20406;-57
2022/01/16 11:30:53;;;;;;;55.03;22.60;;;1.70;99.90;;;;;;5080208;28;20410;-56
2022/01/16 11:33:19;;;;;;;47.38;19.77;;;2.30;99.90;;;;;;5072211;28;20383;-57
2022/01/16 11:35:50;;;;;;;46.38;20.17;;;1.60;99.90;;;;;;5074130;28;20383;-57
2022/01/16 11:38:20;;;;;;;49.35;21.13;;;1.50;99.90;;;;;;5075729;28;20384;-60
2022/01/16 11:40:47;;;;;;;42.58;20.88;;;1.50;99.90;;;;;;5085399;28;20428;-57
2022/01/16 11:43:32;;;;;;;38.72;18.35;;;1.60;99.90;;;;;;5079648;28;20761;-57
2022/01/16 11:46:10;;;;;;;40.58;20.73;;;1.50;99.90;;;;;;5075652;28;20487;-58
2022/01/16 11:48:50;;;;;;;46.85;20.25;;;1.50;99.90;;;;;;5085210;28;20475;-58
2022/01/16 11:51:39;;;;;;;47.13;22.00;;;2.00;99.90;;;;;;5074767;28;20528;-58
2022/01/16 11:54:24;;;;;;;45.88;20.42;;;1.60;99.90;;;;;;5076328;28;21152;-58
2022/01/16 11:56:52;;;;;;;38.20;17.30;;;1.70;99.90;;;;;;5075124;28;20404;-57
2022/01/16 11:59:24;;;;;;;37.15;15.98;;;1.60;99.90;;;;;;5076812;28;20993;-59
2022/01/16 12:02:04;;;;;;;46.20;19.67;;;1.60;99.90;;;;;;5111293;27;20804;-57
2022/01/16 12:04:29;;;;;;;36.08;15.77;;;1.70;99.90;;;;;;5079430;28;20390;-58
2022/01/16 12:07:13;;;;;;;39.75;18.63;;;1.70;99.90;;;;;;5074744;28;20400;-58
2022/01/16 12:09:46;;;;;;;36.97;16.48;;;1.60;99.90;;;;;;5077778;28;20418;-58
2022/01/16 12:12:12;;;;;;;35.35;16.75;;;1.70;99.90;;;;;;5070942;28;20459;-58
2022/01/16 12:14:50;;;;;;;44.43;18.13;;;1.70;99.90;;;;;;5074923;28;20800;-57
2022/01/16 12:17:44;;;;;;;45.33;19.38;;;1.90;99.90;;;;;;5076108;28;20500;-58
2022/01/16 12:20:12;;;;;;;42.30;18.23;;;2.10;99.90;;;;;;5073093;28;20434;-58
2022/01/16 12:23:03;;;;;;;42.45;19.75;;;4.00;99.90;;;;;;5071726;28;21183;-58
2022/01/16 12:25:30;;;;;;;37.60;18.60;;;2.30;99.90;;;;;;5075215;28;20459;-58
2022/01/16 12:28:14;;;;;;;43.20;19.98;;;2.30;99.90;;;;;;5072805;28;20383;-57
2022/01/16 12:30:52;;;;;;;44.35;21.27;;;2.20;99.90;;;;;;5073450;28;20424;-58
2022/01/16 12:33:37;;;;;;;44.58;19.40;;;2.50;99.90;;;;;;5080548;28;20377;-58
2022/01/16 12:36:11;;;;;;;42.60;20.27;;;2.40;99.90;;;;;;5073833;28;20718;-58
2022/01/16 12:38:38;;;;;;;44.50;20.15;;;2.60;99.90;;;;;;5073379;28;20397;-58
2022/01/16 12:41:11;;;;;;;38.38;19.20;;;2.60;99.90;;;;;;5073184;28;20480;-59
2022/01/16 12:43:43;;;;;;;38.38;19.63;;;2.80;99.90;;;;;;5073835;28;20484;-59
2022/01/16 12:46:13;;;;;;;40.55;21.10;;;2.90;99.90;;;;;;5072169;28;20408;-58
2022/01/16 12:48:43;;;;;;;45.03;21.52;;;3.00;99.90;;;;;;5074606;28;20392;-60
2022/01/16 12:51:10;;;;;;;43.08;19.98;;;3.00;99.90;;;;;;5071897;28;20404;-58
2022/01/16 12:53:46;;;;;;;38.70;19.57;;;3.20;99.90;;;;;;5080186;28;20396;-59
2022/01/16 12:56:16;;;;;;;40.15;17.63;;;4.70;99.90;;;;;;5075340;28;20420;-58
2022/01/16 12:58:42;;;;;;;37.05;17.33;;;3.70;99.90;;;;;;5077180;28;20413;-59
2022/01/16 13:01:07;;;;;;;37.83;18.55;;;3.80;99.90;;;;;;5076179;28;20387;-58
2022/01/16 13:03:35;;;;;;;35.13;17.03;;;3.20;99.90;;;;;;5083597;28;20406;-59
2022/01/16 13:06:22;;;;;;;35.50;17.20;;;3.20;99.90;;;;;;5090133;28;20394;-59
2022/01/16 13:09:10;;;;;;;30.60;16.13;;;3.30;99.90;;;;;;5094623;28;20391;-59
2022/01/16 13:11:38;;;;;;;35.50;18.00;;;3.40;99.90;;;;;;5078493;28;20411;-59
2022/01/16 13:14:10;;;;;;;36.70;18.20;;;3.50;99.90;;;;;;5079679;28;20493;-59
2022/01/16 13:16:43;;;;;;;36.00;18.30;;;3.60;99.90;;;;;;5078201;28;20419;-58
2022/01/16 13:19:15;;;;;;;36.30;18.92;;;3.60;99.90;;;;;;5076165;28;20448;-60
2022/01/16 13:22:04;;;;;;;31.95;16.50;;;3.70;99.90;;;;;;5070725;28;20895;-59
2022/01/16 13:24:36;;;;;;;35.00;17.77;;;3.70;99.90;;;;;;5069609;28;20917;-58